Time;durP1;ratioP1;P1;durP2;ratioP2;P2;SDS_P1;SDS_P2;PMS_P1;PMS_P2;Temp;Humidity;BMP_temperature;BMP_pressure;BME280_temperature;BME280_humidity;BME280_pressure;Samples;Min_cycle;Max_cycle;Signal;HPM_P1;HPM_P2
2022/08/29 00:00:41;;;;;;;0.30;0.28;;;16.40;99.90;;;;;;5029057;28;20040;-81
2022/08/29 00:03:08;;;;;;;0.65;0.40;;;16.40;99.90;;;;;;4977676;28;20050;-81
2022/08/29 00:05:37;;;;;;;0.30;0.30;;;16.40;99.90;;;;;;4994140;28;20057;-81
2022/08/29 00:08:05;;;;;;;0.30;0.17;;;16.40;99.90;;;;;;5009828;28;20047;-81
2022/08/29 00:10:33;;;;;;;0.08;0.08;;;16.40;99.90;;;;;;5010448;28;20042;-81
2022/08/29 00:13:00;;;;;;;0.10;0.10;;;16.40;99.90;;;;;;5026923;28;20042;-81
2022/08/29 00:15:26;;;;;;;0.20;0.20;;;16.40;99.90;;;;;;5026187;28;20034;-82
2022/08/29 00:17:54;;;;;;;0.28;0.17;;;16.40;99.90;;;;;;5010067;28;20408;-81
2022/08/29 00:20:24;;;;;;;0.43;0.28;;;16.40;99.90;;;;;;5010072;28;20400;-82
2022/08/29 00:22:51;;;;;;;0.20;0.10;;;16.40;99.90;;;;;;5009999;28;20039;-81
2022/08/29 00:25:18;;;;;;;0.30;0.28;;;16.40;99.90;;;;;;4993659;28;20042;-82
2022/08/29 00:27:44;;;;;;;0.47;0.25;;;16.40;99.90;;;;;;5026248;28;20057;-82
2022/08/29 00:30:12;;;;;;;0.30;0.20;;;16.40;99.90;;;;;;5025896;28;20043;-82
2022/08/29 00:32:39;;;;;;;0.10;0.10;;;16.40;99.90;;;;;;5009941;28;20074;-82
2022/08/29 00:35:18;;;;;;;0.17;0.17;;;16.40;99.90;;;;;;4996984;28;20123;-81
2022/08/29 00:37:46;;;;;;;2.65;0.38;;;16.40;99.90;;;;;;5029685;28;20053;-82
2022/08/29 00:40:19;;;;;;;0.20;0.20;;;16.40;99.90;;;;;;5045283;28;20042;-81
2022/08/29 00:42:46;;;;;;;0.32;0.20;;;16.40;99.90;;;;;;5026223;28;20030;-81
2022/08/29 00:45:15;;;;;;;0.75;0.32;;;16.40;99.90;;;;;;4977424;28;20513;-81
2022/08/29 00:48:13;;;;;;;1.15;0.55;;;16.50;99.90;;;;;;5011975;28;20038;-82
2022/08/29 00:50:46;;;;;;;0.60;0.20;;;16.40;99.90;;;;;;5028463;28;20057;-83
2022/08/29 00:53:17;;;;;;;0.17;0.17;;;16.40;99.90;;;;;;5029111;28;20046;-82
2022/08/29 00:55:46;;;;;;;0.10;0.10;;;16.40;99.90;;;;;;5029281;28;20038;-82
2022/08/29 00:58:23;;;;;;;1.13;0.52;;;16.50;99.90;;;;;;5031385;28;20503;-81
2022/08/29 01:00:51;;;;;;;0.17;0.17;;;16.40;99.90;;;;;;5049119;28;20541;-81
2022/08/29 01:03:18;;;;;;;0.10;0.10;;;16.40;99.90;;;;;;5016428;28;20050;-82
2022/08/29 01:05:45;;;;;;;0.17;0.10;;;16.40;99.90;;;;;;5049134;28;20061;-82
2022/08/29 01:08:11;;;;;;;1.90;0.60;;;16.40;99.90;;;;;;5016459;28;20073;-80
2022/08/29 01:13:31;;;;;;;0.10;0.05;;;16.40;99.90;;;;;;5044407;28;20042;-82
2022/08/29 01:15:59;;;;;;;0.10;0.10;;;16.40;99.90;;;;;;5029230;28;20046;-81
2022/08/29 01:18:27;;;;;;;0.52;0.38;;;16.40;99.90;;;;;;4997155;28;20046;-81
2022/08/29 01:21:15;;;;;;;0.20;0.20;;;16.40;99.90;;;;;;4997757;28;20038;-82
2022/08/29 01:24:01;;;;;;;0.30;0.20;;;16.40;99.90;;;;;;5018067;28;20034;-82
2022/08/29 01:26:30;;;;;;;0.47;0.30;;;16.50;99.90;;;;;;5029895;28;20103;-81
2022/08/29 01:28:57;;;;;;;0.65;0.32;;;16.40;99.90;;;;;;5016571;28;20041;-81
2022/08/29 01:31:27;;;;;;;0.38;0.22;;;16.40;99.90;;;;;;5032335;28;20046;-82
2022/08/29 01:33:57;;;;;;;1.02;0.30;;;16.40;99.90;;;;;;5032469;28;20064;-82
2022/08/29 01:37:00;;;;;;;0.43;0.20;;;16.50;99.90;;;;;;5031538;28;20120;-82
2022/08/29 01:39:33;;;;;;;0.10;0.10;;;16.40;99.90;;;;;;5041099;28;20046;-81
2022/08/29 01:42:13;;;;;;;0.10;0.10;;;16.40;99.90;;;;;;5012640;28;20042;-81
2022/08/29 01:44:46;;;;;;;0.10;0.10;;;16.50;99.90;;;;;;5012582;28;20078;-82
2022/08/29 01:47:12;;;;;;;0.25;0.20;;;16.50;99.90;;;;;;5011877;28;20129;-80
2022/08/29 01:49:39;;;;;;;0.52;0.20;;;16.50;99.90;;;;;;4996228;28;20138;-82
2022/08/29 01:52:07;;;;;;;0.10;0.10;;;16.50;99.90;;;;;;4995965;28;20517;-81
2022/08/29 01:54:33;;;;;;;0.20;0.20;;;16.50;99.90;;;;;;4980151;28;20037;-82
2022/08/29 01:57:01;;;;;;;0.35;0.17;;;16.50;99.90;;;;;;5012434;28;20042;-82
2022/08/29 01:59:30;;;;;;;0.15;0.10;;;16.50;99.90;;;;;;4996333;28;20050;-81
2022/08/29 02:02:06;;;;;;;0.10;0.10;;;16.50;99.90;;;;;;5028404;28;20041;-82
2022/08/29 02:04:33;;;;;;;0.00;0.00;;;16.50;99.90;;;;;;5028234;28;20057;-82
2022/08/29 02:07:00;;;;;;;0.03;0.00;;;16.50;99.90;;;;;;5012041;28;20057;-81
2022/08/29 02:09:27;;;;;;;0.30;0.20;;;16.50;99.90;;;;;;5011595;28;20042;-81
2022/08/29 02:11:56;;;;;;;0.03;0.03;;;16.50;99.90;;;;;;5012166;28;20053;-80
2022/08/29 02:14:23;;;;;;;0.20;0.17;;;16.50;99.90;;;;;;5012040;28;20096;-81
2022/08/29 02:16:50;;;;;;;0.30;0.10;;;16.50;99.90;;;;;;5011888;28;20538;-81
2022/08/29 02:19:17;;;;;;;0.15;0.10;;;16.50;99.90;;;;;;4998560;28;20039;-82
2022/08/29 02:21:45;;;;;;;0.30;0.20;;;16.50;99.90;;;;;;4995844;28;20403;-82
2022/08/29 02:24:12;;;;;;;0.32;0.25;;;16.50;99.90;;;;;;4995367;28;20096;-81
2022/08/29 02:26:38;;;;;;;0.32;0.20;;;16.40;99.90;;;;;;5011756;28;20124;-81
2022/08/29 02:29:05;;;;;;;0.32;0.20;;;16.50;99.90;;;;;;5011685;28;20043;-81
2022/08/29 02:31:33;;;;;;;0.15;0.10;;;16.40;99.90;;;;;;5013481;28;20038;-81
2022/08/29 02:33:59;;;;;;;0.45;0.20;;;16.40;99.90;;;;;;4999378;28;20694;-82
2022/08/29 02:36:26;;;;;;;0.10;0.10;;;16.40;99.90;;;;;;5014635;28;20038;-82
2022/08/29 02:38:53;;;;;;;2.67;0.57;;;16.40;99.90;;;;;;5015322;28;20077;-81
2022/08/29 02:41:19;;;;;;;0.10;0.10;;;16.40;99.90;;;;;;5014828;28;20491;-81
2022/08/29 02:43:46;;;;;;;0.10;0.10;;;16.40;99.90;;;;;;4999027;28;20107;-81
2022/08/29 02:46:16;;;;;;;0.25;0.20;;;16.40;99.90;;;;;;5031248;28;20505;-82
2022/08/29 02:48:45;;;;;;;0.20;0.20;;;16.40;99.90;;;;;;5030547;28;20042;-81
2022/08/29 02:51:24;;;;;;;0.43;0.28;;;16.40;99.90;;;;;;5014920;28;20052;-82
2022/08/29 02:53:51;;;;;;;0.10;0.10;;;16.40;99.90;;;;;;5030914;28;20042;-81
2022/08/29 02:56:18;;;;;;;0.32;0.20;;;16.40;99.90;;;;;;5010608;28;20125;-81
2022/08/29 02:58:46;;;;;;;0.30;0.20;;;16.40;99.90;;;;;;5011883;28;20050;-82
2022/08/29 03:01:13;;;;;;;0.13;0.13;;;16.40;99.90;;;;;;4995039;28;20125;-81
2022/08/29 03:03:40;;;;;;;0.00;0.00;;;16.40;99.90;;;;;;5010853;28;20130;-80
2022/08/29 03:06:07;;;;;;;0.25;0.20;;;16.40;99.90;;;;;;5027631;28;20170;-82
2022/08/29 03:08:34;;;;;;;0.40;0.20;;;16.40;99.90;;;;;;5012269;28;20458;-80
2022/08/29 03:11:01;;;;;;;0.35;0.17;;;16.40;99.90;;;;;;5014576;28;20100;-82
2022/08/29 03:13:28;;;;;;;0.13;0.10;;;16.50;99.90;;;;;;5014157;28;20054;-82
2022/08/29 03:15:54;;;;;;;0.00;0.00;;;16.50;99.90;;;;;;4998334;28;20037;-81
2022/08/29 03:18:21;;;;;;;0.00;0.00;;;16.50;99.90;;;;;;5013855;28;20095;-81
2022/08/29 03:20:48;;;;;;;0.00;0.00;;;16.40;99.90;;;;;;5013259;28;20045;-81
2022/08/29 03:23:15;;;;;;;0.15;0.10;;;16.50;99.90;;;;;;4998291;28;20096;-81
2022/08/29 03:25:41;;;;;;;0.28;0.22;;;16.50;99.90;;;;;;5014085;28;20046;-82
2022/08/29 03:28:08;;;;;;;0.15;0.13;;;16.50;99.90;;;;;;5046492;28;20049;-82
2022/08/29 03:30:35;;;;;;;0.20;0.20;;;16.50;99.90;;;;;;4998092;28;20139;-81
2022/08/29 03:33:04;;;;;;;0.30;0.15;;;16.50;99.90;;;;;;5046848;28;20048;-82
2022/08/29 03:35:31;;;;;;;0.20;0.20;;;16.50;99.90;;;;;;5029751;28;20458;-82
2022/08/29 03:37:58;;;;;;;0.10;0.10;;;16.50;99.90;;;;;;5013857;28;20049;-82
2022/08/29 03:40:25;;;;;;;0.10;0.10;;;16.50;99.90;;;;;;5013490;28;20037;-81
2022/08/29 03:42:52;;;;;;;0.47;0.35;;;16.50;99.90;;;;;;5029906;28;20038;-83
2022/08/29 03:45:19;;;;;;;1.45;0.73;;;16.50;99.90;;;;;;5010082;28;20054;-81
2022/08/29 03:47:46;;;;;;;0.00;0.00;;;16.50;99.90;;;;;;5009933;28;20042;-81
2022/08/29 03:50:14;;;;;;;0.10;0.10;;;16.50;99.90;;;;;;4994311;28;20038;-82
2022/08/29 03:52:42;;;;;;;0.28;0.17;;;16.50;99.90;;;;;;5009952;28;20034;-82
2022/08/29 03:55:11;;;;;;;0.10;0.10;;;16.50;99.90;;;;;;4994190;28;20085;-82
2022/08/29 03:57:37;;;;;;;0.10;0.10;;;16.50;99.90;;;;;;5032665;28;20410;-81
2022/08/29 04:00:09;;;;;;;0.08;0.08;;;16.50;99.90;;;;;;5013524;28;20126;-82
2022/08/29 04:02:36;;;;;;;0.10;0.10;;;16.50;99.90;;;;;;5029354;28;20498;-83
2022/08/29 04:05:06;;;;;;;0.15;0.15;;;16.50;99.90;;;;;;5013943;28;20089;-81
2022/08/29 04:07:43;;;;;;;0.10;0.10;;;16.60;99.90;;;;;;5029771;28;20069;-83
2022/08/29 04:10:14;;;;;;;0.35;0.17;;;16.60;99.90;;;;;;5029482;28;20108;-82
2022/08/29 04:12:40;;;;;;;0.38;0.35;;;16.50;99.90;;;;;;5045818;28;20112;-82
2022/08/29 04:15:08;;;;;;;0.20;0.13;;;16.50;99.90;;;;;;4997496;28;20042;-81
2022/08/29 04:17:36;;;;;;;0.10;0.10;;;16.60;99.90;;;;;;5029157;28;20046;-81
2022/08/29 04:20:05;;;;;;;0.10;0.10;;;16.60;99.90;;;;;;4997606;28;20553;-81
2022/08/29 04:22:34;;;;;;;0.13;0.10;;;16.50;99.90;;;;;;4996882;28;20044;-81
2022/08/29 04:25:00;;;;;;;0.00;0.00;;;16.50;99.90;;;;;;5045464;28;20099;-81
2022/08/29 04:27:27;;;;;;;0.45;0.20;;;16.50;99.90;;;;;;5012937;28;20128;-81
2022/08/29 04:29:54;;;;;;;0.57;0.30;;;16.50;99.90;;;;;;4997450;28;20046;-82
2022/08/29 04:32:21;;;;;;;0.22;0.20;;;16.50;99.90;;;;;;4998073;28;20045;-83
2022/08/29 04:34:48;;;;;;;0.17;0.17;;;16.50;99.90;;;;;;5001040;28;20041;-82
2022/08/29 04:37:15;;;;;;;0.32;0.17;;;16.50;99.90;;;;;;5017101;28;20042;-82
2022/08/29 04:39:42;;;;;;;0.10;0.03;;;16.50;99.90;;;;;;5017052;28;20053;-82
2022/08/29 04:42:09;;;;;;;0.20;0.10;;;16.40;99.90;;;;;;5001312;28;20084;-81
2022/08/29 04:44:35;;;;;;;0.30;0.25;;;16.40;99.90;;;;;;5000613;28;20129;-82
2022/08/29 04:47:02;;;;;;;0.10;0.10;;;16.40;99.90;;;;;;5000543;28;20045;-81
2022/08/29 04:49:29;;;;;;;0.52;0.28;;;16.40;99.90;;;;;;5032956;28;20046;-81
2022/08/29 04:51:55;;;;;;;0.10;0.10;;;16.30;99.90;;;;;;5000555;28;20046;-83
2022/08/29 04:54:22;;;;;;;0.10;0.10;;;16.40;99.90;;;;;;5017019;28;20103;-81
2022/08/29 04:56:49;;;;;;;0.20;0.10;;;16.40;99.90;;;;;;4996462;28;20817;-82
2022/08/29 04:59:16;;;;;;;0.38;0.25;;;16.30;99.90;;;;;;5029786;28;20040;-81
2022/08/29 05:01:42;;;;;;;0.08;0.08;;;16.40;99.90;;;;;;5029323;28;20092;-81
2022/08/29 05:04:10;;;;;;;0.20;0.10;;;16.30;99.90;;;;;;5013079;28;20046;-82
2022/08/29 05:06:36;;;;;;;0.00;0.00;;;16.30;99.90;;;;;;5029423;28;20054;-82
2022/08/29 05:09:04;;;;;;;0.38;0.20;;;16.30;99.90;;;;;;5013706;28;20391;-82
2022/08/29 05:11:31;;;;;;;0.43;0.20;;;16.30;99.90;;;;;;5029361;28;20050;-83
2022/08/29 05:13:59;;;;;;;0.20;0.20;;;16.30;99.90;;;;;;5012891;28;20050;-81
2022/08/29 05:16:26;;;;;;;0.10;0.10;;;16.30;99.90;;;;;;4997134;28;20042;-82
2022/08/29 05:18:53;;;;;;;0.22;0.22;;;16.30;99.90;;;;;;4996834;28;20096;-81
2022/08/29 05:21:30;;;;;;;0.22;0.15;;;16.40;99.90;;;;;;5013270;28;20129;-82
2022/08/29 05:23:58;;;;;;;0.10;0.10;;;16.30;99.90;;;;;;5012584;28;20512;-81
2022/08/29 05:26:30;;;;;;;0.00;0.00;;;16.40;99.90;;;;;;4997505;28;20045;-81
2022/08/29 05:28:57;;;;;;;0.10;0.10;;;16.30;99.90;;;;;;5012350;28;20493;-81
2022/08/29 05:31:24;;;;;;;0.10;0.10;;;16.40;99.90;;;;;;5009102;28;20121;-81
2022/08/29 05:33:51;;;;;;;0.17;0.10;;;16.40;99.90;;;;;;5048637;28;20053;-82
2022/08/29 05:36:18;;;;;;;0.10;0.10;;;16.40;99.90;;;;;;5016015;28;20495;-82
2022/08/29 05:38:45;;;;;;;0.47;0.20;;;16.40;99.90;;;;;;5016203;28;20046;-82
2022/08/29 05:41:11;;;;;;;0.28;0.20;;;16.40;99.90;;;;;;5012285;28;20555;-82
2022/08/29 05:43:38;;;;;;;0.55;0.38;;;16.40;99.90;;;;;;4995441;28;20049;-81
2022/08/29 05:46:08;;;;;;;0.10;0.08;;;16.40;99.90;;;;;;4980465;28;20566;-83
2022/08/29 05:48:37;;;;;;;0.10;0.10;;;16.40;99.90;;;;;;5012366;28;20413;-81
2022/08/29 05:51:04;;;;;;;0.10;0.10;;;16.40;99.90;;;;;;5012744;28;20042;-82
2022/08/29 05:53:33;;;;;;;0.65;0.38;;;16.40;99.90;;;;;;5008256;28;20112;-81
2022/08/29 05:56:00;;;;;;;0.35;0.20;;;16.50;99.90;;;;;;4980386;28;20468;-81
2022/08/29 05:58:27;;;;;;;0.20;0.20;;;16.50;99.90;;;;;;5012006;28;20078;-81
2022/08/29 06:00:53;;;;;;;0.13;0.13;;;16.60;99.90;;;;;;4996148;28;20038;-81
2022/08/29 06:03:20;;;;;;;0.20;0.20;;;16.60;99.90;;;;;;4996076;28;20423;-82
2022/08/29 06:05:51;;;;;;;0.20;0.20;;;16.70;99.90;;;;;;5003566;28;20038;-81
2022/08/29 06:08:19;;;;;;;1.02;0.30;;;16.70;99.90;;;;;;5018153;28;20041;-83
2022/08/29 06:10:46;;;;;;;0.40;0.30;;;16.70;99.90;;;;;;5015370;28;20046;-82
2022/08/29 06:13:13;;;;;;;0.10;0.10;;;16.80;99.90;;;;;;5015783;28;20121;-83
2022/08/29 06:15:44;;;;;;;0.10;0.10;;;17.40;99.90;;;;;;5031232;28;20049;-83
2022/08/29 06:18:11;;;;;;;0.20;0.10;;;16.90;99.90;;;;;;5014984;28;20050;-83
2022/08/29 06:20:39;;;;;;;0.10;0.10;;;17.00;99.90;;;;;;4999003;28;20053;-82
2022/08/29 06:23:06;;;;;;;0.45;0.20;;;17.00;99.90;;;;;;5031212;28;20129;-83
2022/08/29 06:25:33;;;;;;;0.10;0.10;;;17.00;99.90;;;;;;5031107;28;20045;-82
2022/08/29 06:28:00;;;;;;;0.40;0.40;;;17.10;99.90;;;;;;5014928;28;20432;-82
2022/08/29 06:30:30;;;;;;;0.00;0.00;;;17.20;99.90;;;;;;4999266;28;20085;-83
2022/08/29 06:32:57;;;;;;;0.20;0.20;;;17.20;99.90;;;;;;5029474;28;20077;-81
2022/08/29 06:35:24;;;;;;;0.20;0.20;;;17.20;99.90;;;;;;5004987;28;20041;-82
2022/08/29 06:37:51;;;;;;;1.55;0.40;;;17.30;99.90;;;;;;5047377;28;20407;-82
2022/08/29 06:40:17;;;;;;;0.20;0.17;;;17.40;99.90;;;;;;5014602;28;20049;-84
2022/08/29 06:42:44;;;;;;;0.30;0.10;;;17.50;99.90;;;;;;4998353;28;20037;-84
2022/08/29 06:45:11;;;;;;;0.15;0.15;;;17.70;99.90;;;;;;4998158;28;20034;-82
2022/08/29 06:47:37;;;;;;;0.30;0.30;;;17.70;99.90;;;;;;5014323;28;20042;-83
2022/08/29 06:50:05;;;;;;;0.17;0.13;;;17.80;99.90;;;;;;4998507;28;20042;-82
2022/08/29 06:52:32;;;;;;;0.17;0.10;;;17.80;99.90;;;;;;4998697;28;20042;-82
2022/08/29 06:54:58;;;;;;;0.57;0.30;;;17.90;99.90;;;;;;4997746;28;20126;-80
2022/08/29 06:57:25;;;;;;;0.52;0.10;;;17.90;99.90;;;;;;5014465;28;20038;-82
2022/08/29 06:59:52;;;;;;;0.20;0.13;;;18.10;99.90;;;;;;4998352;28;20037;-83
2022/08/29 07:02:19;;;;;;;0.57;0.22;;;18.00;99.90;;;;;;5014125;28;20069;-82
2022/08/29 07:04:46;;;;;;;1.25;0.30;;;18.10;99.90;;;;;;5014464;28;20598;-83
2022/08/29 07:07:12;;;;;;;0.10;0.10;;;18.10;99.90;;;;;;4998211;28;20046;-81
2022/08/29 07:09:39;;;;;;;0.52;0.30;;;18.20;99.90;;;;;;4981995;28;20042;-82
2022/08/29 07:12:06;;;;;;;0.17;0.10;;;18.30;99.90;;;;;;4997888;28;20046;-82
2022/08/29 07:14:32;;;;;;;0.22;0.20;;;18.30;99.90;;;;;;5013944;28;20125;-83
2022/08/29 07:16:59;;;;;;;0.88;0.32;;;18.40;99.90;;;;;;4997925;28;20044;-83
2022/08/29 07:19:26;;;;;;;0.57;0.30;;;18.40;99.90;;;;;;5013996;28;20037;-82
2022/08/29 07:21:53;;;;;;;0.30;0.20;;;18.40;99.90;;;;;;4981857;28;20038;-83
2022/08/29 07:24:19;;;;;;;0.50;0.30;;;18.50;99.90;;;;;;4982331;28;20038;-83
2022/08/29 07:26:46;;;;;;;2.55;0.50;;;18.50;99.90;;;;;;4998194;28;20042;-83
2022/08/29 07:29:19;;;;;;;0.13;0.10;;;18.50;99.90;;;;;;4993901;28;20803;-83
2022/08/29 07:31:46;;;;;;;0.63;0.05;;;18.60;99.90;;;;;;5010335;28;20069;-84
2022/08/29 07:34:14;;;;;;;1.52;0.35;;;18.60;99.90;;;;;;5004759;28;20042;-82
2022/08/29 07:36:40;;;;;;;0.17;0.13;;;18.70;99.90;;;;;;5003637;28;20042;-83
2022/08/29 07:39:11;;;;;;;0.08;0.08;;;18.70;99.90;;;;;;5012705;28;20041;-82
2022/08/29 07:41:40;;;;;;;1.13;0.40;;;18.70;99.90;;;;;;5013484;28;20072;-82
2022/08/29 07:44:07;;;;;;;0.80;0.25;;;18.80;99.90;;;;;;5013508;28;20176;-83
2022/08/29 07:46:35;;;;;;;0.35;0.20;;;18.80;99.90;;;;;;5029321;28;20426;-82
2022/08/29 07:49:02;;;;;;;0.25;0.25;;;18.80;99.90;;;;;;5012958;28;20053;-83
2022/08/29 07:51:29;;;;;;;0.43;0.17;;;18.90;99.90;;;;;;5007984;28;20121;-84
2022/08/29 07:53:57;;;;;;;0.13;0.10;;;18.90;99.90;;;;;;4999621;28;20188;-83
2022/08/29 07:56:27;;;;;;;0.20;0.20;;;19.00;99.90;;;;;;5011817;28;20049;-83
2022/08/29 07:58:55;;;;;;;1.20;0.35;;;19.10;99.90;;;;;;5009857;28;20052;-83
2022/08/29 08:01:23;;;;;;;0.20;0.20;;;19.10;99.90;;;;;;5029182;28;20143;-83
2022/08/29 08:03:51;;;;;;;0.43;0.30;;;19.10;99.90;;;;;;5022119;28;20068;-84
2022/08/29 08:06:21;;;;;;;2.85;0.40;;;19.10;99.90;;;;;;5044726;28;20041;-83
2022/08/29 08:08:48;;;;;;;0.90;0.43;;;19.10;99.90;;;;;;5028749;28;20048;-84
2022/08/29 08:11:15;;;;;;;0.35;0.20;;;19.10;99.90;;;;;;5029369;28;20705;-84
2022/08/29 08:13:43;;;;;;;0.82;0.47;;;19.00;99.90;;;;;;5028579;28;20455;-84
2022/08/29 08:16:17;;;;;;;0.38;0.20;;;19.10;99.90;;;;;;5012497;28;20403;-84
2022/08/29 08:18:44;;;;;;;0.33;0.17;;;19.10;99.90;;;;;;5028653;28;20533;-84
2022/08/29 08:21:11;;;;;;;0.20;0.20;;;19.20;99.90;;;;;;5027423;28;20034;-84
2022/08/29 08:23:38;;;;;;;1.13;0.60;;;19.20;99.90;;;;;;4996744;28;20045;-83
2022/08/29 08:26:06;;;;;;;0.30;0.30;;;19.40;99.90;;;;;;5025822;28;20046;-85
2022/08/29 08:28:33;;;;;;;0.25;0.25;;;19.60;99.90;;;;;;5029031;28;20041;-84
2022/08/29 08:31:02;;;;;;;0.63;0.40;;;19.80;99.90;;;;;;5028554;28;20882;-84
2022/08/29 08:33:29;;;;;;;0.73;0.40;;;20.00;99.90;;;;;;5029111;28;20140;-84
2022/08/29 08:35:56;;;;;;;0.25;0.22;;;20.20;99.90;;;;;;4996076;28;20120;-84
2022/08/29 08:38:23;;;;;;;0.17;0.17;;;20.30;99.90;;;;;;5012736;28;20046;-85
2022/08/29 08:41:01;;;;;;;0.55;0.40;;;20.40;99.90;;;;;;5031571;28;20041;-83
2022/08/29 08:43:49;;;;;;;1.27;0.50;;;20.40;99.90;;;;;;5029357;28;20038;-82
2022/08/29 08:46:18;;;;;;;0.52;0.50;;;20.40;99.90;;;;;;5028276;28;20092;-83
2022/08/29 08:48:48;;;;;;;1.73;0.50;;;20.40;99.90;;;;;;5015252;28;20042;-83
2022/08/29 08:51:25;;;;;;;0.60;0.30;;;20.40;99.90;;;;;;5019697;28;20046;-83
2022/08/29 08:53:55;;;;;;;0.80;0.35;;;20.50;99.90;;;;;;5014766;28;20054;-84
2022/08/29 08:56:31;;;;;;;0.15;0.05;;;20.60;99.90;;;;;;5027909;28;20544;-83
2022/08/29 08:59:17;;;;;;;0.30;0.30;;;20.60;99.90;;;;;;5018871;28;20057;-84
2022/08/29 09:02:16;;;;;;;0.45;0.32;;;20.60;99.90;;;;;;5009194;28;20491;-83
2022/08/29 09:05:06;;;;;;;0.45;0.40;;;20.50;99.90;;;;;;5054857;28;20514;-84
2022/08/29 09:08:05;;;;;;;0.90;0.32;;;20.50;99.90;;;;;;5024879;28;20526;-83
2022/08/29 09:10:32;;;;;;;0.95;0.40;;;20.40;99.90;;;;;;5023798;28;20526;-83
2022/08/29 09:13:11;;;;;;;1.00;0.38;;;20.40;99.90;;;;;;5041778;28;20042;-83
2022/08/29 09:15:46;;;;;;;0.82;0.30;;;20.30;99.90;;;;;;5027003;28;20038;-83
2022/08/29 09:18:32;;;;;;;0.20;0.20;;;20.20;99.90;;;;;;4999269;28;20038;-83
2022/08/29 09:21:02;;;;;;;0.63;0.40;;;20.10;99.90;;;;;;5030530;28;20414;-83
2022/08/29 09:23:50;;;;;;;0.20;0.15;;;20.00;99.90;;;;;;5028850;28;20042;-84
2022/08/29 09:26:19;;;;;;;0.52;0.20;;;19.90;99.90;;;;;;5031683;28;20069;-84
2022/08/29 09:28:46;;;;;;;0.95;0.55;;;19.90;99.90;;;;;;5028659;28;20046;-84
2022/08/29 09:31:28;;;;;;;0.47;0.38;;;19.80;99.90;;;;;;4998493;28;20491;-83
2022/08/29 09:34:02;;;;;;;0.20;0.20;;;19.80;99.90;;;;;;5047160;28;20042;-83
2022/08/29 09:36:50;;;;;;;0.20;0.20;;;19.80;99.90;;;;;;5028413;28;20046;-84
2022/08/29 09:39:28;;;;;;;0.15;0.15;;;19.80;99.90;;;;;;5028069;28;20042;-83
2022/08/29 09:42:18;;;;;;;0.47;0.30;;;19.80;99.90;;;;;;5038994;28;20116;-83
2022/08/29 09:44:54;;;;;;;0.30;0.30;;;19.80;99.90;;;;;;5028440;28;20112;-83
2022/08/29 09:47:26;;;;;;;0.63;0.30;;;19.80;99.90;;;;;;5046625;28;20030;-83
2022/08/29 09:50:17;;;;;;;0.45;0.32;;;19.90;99.90;;;;;;5031428;28;20049;-83
2022/08/29 09:52:59;;;;;;;0.30;0.30;;;20.00;99.90;;;;;;5030097;28;20061;-83
2022/08/29 09:55:28;;;;;;;0.68;0.35;;;20.00;99.90;;;;;;5047463;28;20037;-83
2022/08/29 09:58:00;;;;;;;0.32;0.32;;;20.10;99.90;;;;;;5046788;28;20053;-83
2022/08/29 10:00:32;;;;;;;0.45;0.35;;;20.20;99.90;;;;;;5047842;28;20037;-83
2022/08/29 10:03:01;;;;;;;0.32;0.32;;;20.20;99.90;;;;;;5030491;28;20511;-83
2022/08/29 10:05:36;;;;;;;1.08;0.30;;;20.30;99.90;;;;;;5031405;28;20061;-83
2022/08/29 10:08:05;;;;;;;1.63;0.43;;;20.40;99.90;;;;;;5046405;28;20045;-83
2022/08/29 10:10:36;;;;;;;1.00;0.40;;;20.40;99.90;;;;;;5031028;28;20124;-84
2022/08/29 10:13:16;;;;;;;0.47;0.20;;;20.30;99.90;;;;;;5028480;28;20046;-84
2022/08/29 10:15:54;;;;;;;0.20;0.20;;;20.30;99.90;;;;;;5046181;28;20113;-84
2022/08/29 10:18:45;;;;;;;0.17;0.17;;;20.30;99.90;;;;;;5028579;28;20077;-84
2022/08/29 10:21:28;;;;;;;0.47;0.40;;;20.20;99.90;;;;;;5042340;28;20129;-84
2022/08/29 10:24:06;;;;;;;0.40;0.30;;;20.10;99.90;;;;;;5030305;28;20120;-84
2022/08/29 10:26:51;;;;;;;0.40;0.28;;;20.10;99.90;;;;;;5030440;28;20069;-84
2022/08/29 10:29:25;;;;;;;0.23;0.20;;;20.10;99.90;;;;;;5046459;28;20045;-85
2022/08/29 10:32:23;;;;;;;0.20;0.20;;;20.00;99.90;;;;;;5030425;28;20120;-85
2022/08/29 10:34:51;;;;;;;0.10;0.10;;;20.00;99.90;;;;;;5015138;28;20134;-85
2022/08/29 10:37:21;;;;;;;0.43;0.40;;;20.00;99.90;;;;;;5030240;28;20088;-84
2022/08/29 10:40:07;;;;;;;0.25;0.20;;;20.00;99.90;;;;;;5029890;28;20045;-84
2022/08/29 10:42:37;;;;;;;0.32;0.30;;;20.10;99.90;;;;;;5015564;28;20096;-84
2022/08/29 10:45:17;;;;;;;0.65;0.43;;;20.00;99.90;;;;;;5025790;28;20042;-84
2022/08/29 10:48:14;;;;;;;0.17;0.17;;;20.00;99.90;;;;;;5028506;28;20034;-83
2022/08/29 10:50:55;;;;;;;0.10;0.10;;;20.00;99.90;;;;;;5022228;28;20049;-84
2022/08/29 10:53:45;;;;;;;0.40;0.30;;;20.00;99.90;;;;;;5022153;28;20038;-84
2022/08/29 10:56:23;;;;;;;1.55;0.30;;;20.00;99.90;;;;;;5029573;28;20041;-83
2022/08/29 10:59:22;;;;;;;0.20;0.20;;;20.00;99.90;;;;;;5028901;28;20038;-84
2022/08/29 11:01:59;;;;;;;0.70;0.50;;;20.00;99.90;;;;;;5030401;28;20192;-84
2022/08/29 11:04:28;;;;;;;0.32;0.30;;;19.90;99.90;;;;;;5029645;28;20046;-83
2022/08/29 11:07:09;;;;;;;0.38;0.30;;;19.90;99.90;;;;;;5029220;28;20054;-84
2022/08/29 11:10:04;;;;;;;0.10;0.10;;;19.90;99.90;;;;;;5046516;28;20045;-83
2022/08/29 11:12:44;;;;;;;0.10;0.10;;;19.90;99.90;;;;;;5026598;28;20410;-83
2022/08/29 11:15:25;;;;;;;0.70;0.35;;;20.00;99.90;;;;;;5041040;28;20038;-83
2022/08/29 11:18:24;;;;;;;0.85;0.50;;;20.00;99.90;;;;;;5019789;28;20041;-83
2022/08/29 11:21:16;;;;;;;0.65;0.32;;;20.00;99.90;;;;;;4960209;28;20042;-83
2022/08/29 11:23:46;;;;;;;0.10;0.10;;;20.10;99.90;;;;;;4994713;28;20399;-83
2022/08/29 11:26:21;;;;;;;0.20;0.20;;;20.10;99.90;;;;;;5027189;28;20512;-83
2022/08/29 11:29:20;;;;;;;0.22;0.20;;;20.20;99.90;;;;;;5023593;28;20495;-83
2022/08/29 11:31:58;;;;;;;0.08;0.08;;;20.30;99.90;;;;;;5045302;28;20103;-84
2022/08/29 11:34:43;;;;;;;0.30;0.30;;;20.40;99.90;;;;;;5021449;28;20069;-83
2022/08/29 11:37:55;;;;;;;1.13;0.65;;;20.50;99.90;;;;;;5019210;28;20046;-84
2022/08/29 11:40:30;;;;;;;0.20;0.10;;;20.60;99.90;;;;;;5038187;28;20049;-83
2022/08/29 11:43:01;;;;;;;0.20;0.20;;;20.70;99.90;;;;;;5021962;28;20133;-83
2022/08/29 11:45:34;;;;;;;0.28;0.15;;;20.90;99.90;;;;;;5026912;28;20120;-84
2022/08/29 11:48:30;;;;;;;0.20;0.20;;;21.10;99.90;;;;;;5045386;28;20096;-84
2022/08/29 11:50:58;;;;;;;0.38;0.38;;;21.20;99.90;;;;;;5029322;28;20052;-84
2022/08/29 11:53:34;;;;;;;2.55;0.40;;;21.40;99.90;;;;;;5045501;28;20117;-84
2022/08/29 11:56:13;;;;;;;0.22;0.22;;;21.50;99.90;;;;;;5025406;28;20500;-83
2022/08/29 11:58:47;;;;;;;0.52;0.30;;;21.60;99.90;;;;;;5026085;28;20042;-84
2022/08/29 12:01:32;;;;;;;1.00;0.40;;;21.80;99.90;;;;;;5038881;28;20046;-83
2022/08/29 12:04:07;;;;;;;0.52;0.43;;;21.90;99.90;;;;;;5029014;28;20041;-84
2022/08/29 12:06:57;;;;;;;0.30;0.30;;;22.00;99.90;;;;;;5025308;28;20046;-84
2022/08/29 12:09:36;;;;;;;0.30;0.20;;;22.00;99.90;;;;;;5001393;28;20622;-84
2022/08/29 12:12:11;;;;;;;0.30;0.20;;;22.10;99.90;;;;;;5019943;28;20041;-84
2022/08/29 12:14:49;;;;;;;0.32;0.20;;;22.00;99.90;;;;;;5028724;28;20093;-83
2022/08/29 12:17:16;;;;;;;0.38;0.35;;;22.00;99.90;;;;;;5044882;28;20042;-84
2022/08/29 12:20:09;;;;;;;0.28;0.17;;;22.10;99.90;;;;;;5022584;28;20087;-83
2022/08/29 12:22:53;;;;;;;0.20;0.20;;;22.00;99.90;;;;;;5025000;28;20456;-84
2022/08/29 12:25:26;;;;;;;0.43;0.30;;;21.90;99.90;;;;;;5041550;28;20050;-84
2022/08/29 12:28:16;;;;;;;0.28;0.20;;;21.90;99.90;;;;;;5028893;28;20105;-84
2022/08/29 12:30:48;;;;;;;0.32;0.28;;;21.90;99.90;;;;;;5011459;28;20043;-84
2022/08/29 12:33:35;;;;;;;0.20;0.20;;;21.90;99.90;;;;;;5009584;28;20495;-84
2022/08/29 12:36:24;;;;;;;0.22;0.20;;;21.90;99.90;;;;;;5022935;28;20491;-83
2022/08/29 12:39:06;;;;;;;0.55;0.30;;;21.90;99.90;;;;;;5029538;28;20038;-84
2022/08/29 12:41:48;;;;;;;0.90;0.30;;;22.00;99.90;;;;;;5020580;28;20045;-84
2022/08/29 12:44:18;;;;;;;0.05;0.00;;;22.00;99.90;;;;;;5024719;28;20383;-84
2022/08/29 12:46:53;;;;;;;0.00;0.00;;;22.10;99.90;;;;;;5029310;28;20129;-84
2022/08/29 12:49:19;;;;;;;0.28;0.28;;;22.10;99.90;;;;;;5029112;28;20042;-85
2022/08/29 12:51:59;;;;;;;0.57;0.28;;;22.10;99.90;;;;;;5029632;28;20053;-85
2022/08/29 12:54:35;;;;;;;0.40;0.30;;;22.10;99.90;;;;;;5032064;28;20042;-85
2022/08/29 12:57:04;;;;;;;;;;;22.10;99.90;;;;;;5033688;28;20112;-85
2022/08/29 12:59:33;;;;;;;0.55;0.30;;;22.20;99.90;;;;;;5033039;28;19932;-85
2022/08/29 13:02:00;;;;;;;0.30;0.28;;;22.20;99.90;;;;;;5033567;28;20034;-87
2022/08/29 13:04:32;;;;;;;0.25;0.20;;;22.20;99.90;;;;;;5032609;28;20049;-89
2022/08/29 13:07:06;;;;;;;0.20;0.20;;;22.20;99.90;;;;;;5016827;28;20049;-83
2022/08/29 13:09:42;;;;;;;0.30;0.30;;;22.20;99.90;;;;;;5049263;28;20042;-83
2022/08/29 13:12:09;;;;;;;0.30;0.20;;;22.20;99.90;;;;;;5032898;28;20073;-83
2022/08/29 13:14:46;;;;;;;0.65;0.30;;;22.20;99.90;;;;;;5032280;28;20131;-87